createdAt,value
2023-01-20T00:00:54.180Z,69.80
2023-01-20T00:03:44.403Z,71.00
2023-01-20T00:06:32.488Z,65.17
2023-01-20T00:09:20.460Z,68.47
2023-01-20T00:12:08.590Z,66.37
2023-01-20T00:14:57.907Z,70.47
2023-01-20T00:17:45.851Z,67.40
2023-01-20T00:20:33.761Z,64.37
2023-01-20T00:23:21.743Z,71.90
2023-01-20T00:26:11.691Z,65.13
2023-01-20T00:28:59.659Z,64.97
2023-01-20T00:31:48.977Z,63.87
2023-01-20T00:34:36.867Z,66.53
2023-01-20T00:37:24.829Z,64.70
2023-01-20T00:40:13.647Z,67.77
2023-01-20T00:43:01.687Z,61.17
2023-01-20T00:45:49.898Z,65.50
2023-01-20T00:48:39.251Z,68.30
2023-01-20T00:51:27.202Z,66.33
2023-01-20T00:54:15.117Z,65.03
2023-01-20T00:57:03.064Z,67.30
2023-01-20T00:59:51.000Z,65.87
2023-01-20T01:02:40.034Z,65.63
2023-01-20T01:05:29.451Z,61.27
2023-01-20T01:08:17.436Z,71.57
2023-01-20T01:11:06.189Z,67.13
2023-01-20T01:13:56.231Z,66.07
2023-01-20T01:16:44.432Z,63.30
2023-01-20T01:19:32.369Z,65.53
2023-01-20T01:22:22.568Z,68.13
2023-01-20T01:25:10.847Z,63.33
2023-01-20T01:27:58.792Z,71.50
2023-01-20T01:30:46.740Z,64.43
2023-01-20T01:33:35.453Z,66.23
2023-01-20T01:36:23.436Z,62.07
2023-01-20T01:39:12.760Z,68.23
2023-01-20T01:42:00.689Z,69.40
2023-01-20T01:45:18.403Z,66.03
2023-01-20T01:48:10.875Z,63.30
2023-01-20T01:51:03.757Z,67.87
2023-01-20T01:54:01.165Z,71.87
2023-01-20T01:56:51.944Z,68.63
2023-01-20T01:59:40.290Z,68.90
2023-01-20T02:02:28.293Z,71.27
2023-01-20T02:05:18.448Z,67.93
2023-01-20T02:08:08.640Z,68.37
2023-01-20T02:10:56.543Z,65.17
2023-01-20T02:13:46.124Z,65.77
2023-01-20T02:16:45.426Z,63.20
2023-01-20T02:20:13.335Z,66.40
2023-01-20T02:23:07.003Z,61.13
2023-01-20T02:26:17.481Z,56.63
2023-01-20T02:29:46.172Z,60.20
2023-01-20T02:32:50.933Z,58.80
2023-01-20T02:35:43.544Z,60.10
2023-01-20T02:38:40.877Z,67.53
2023-01-20T02:41:38.725Z,58.90
2023-01-20T02:44:32.086Z,64.90
2023-01-20T02:47:25.337Z,61.57
2023-01-20T02:50:20.780Z,65.20
2023-01-20T02:53:10.246Z,62.70
2023-01-20T02:55:58.473Z,64.20
2023-01-20T02:58:51.115Z,64.77
2023-01-20T03:01:43.712Z,61.90
2023-01-20T03:04:36.328Z,65.23
2023-01-20T03:07:30.011Z,66.23
2023-01-20T03:10:22.411Z,63.63
2023-01-20T03:13:16.589Z,61.37
2023-01-20T03:16:08.681Z,60.73
2023-01-20T03:18:56.993Z,65.07
2023-01-20T03:21:45.391Z,63.10
2023-01-20T03:24:37.370Z,65.60
2023-01-20T03:27:26.258Z,69.57
2023-01-20T03:30:16.154Z,64.83
2023-01-20T03:33:05.056Z,66.20
2023-01-20T03:35:53.835Z,63.03
2023-01-20T03:38:42.201Z,66.07
2023-01-20T03:41:41.293Z,64.73
2023-01-20T03:44:40.514Z,69.00
2023-01-20T03:47:45.647Z,60.23
2023-01-20T03:50:38.617Z,59.03
2023-01-20T03:53:34.482Z,66.17
2023-01-20T03:56:27.463Z,56.87
2023-01-20T03:59:21.990Z,58.47
2023-01-20T04:02:11.894Z,62.00
2023-01-20T04:05:02.335Z,59.27
2023-01-20T04:07:51.163Z,56.63
2023-01-20T04:10:42.673Z,59.80
2023-01-20T04:13:30.898Z,57.90
2023-01-20T04:16:21.905Z,55.43
2023-01-20T04:19:09.969Z,51.67
2023-01-20T04:22:04.431Z,57.97
2023-01-20T04:24:55.360Z,53.00
2023-01-20T04:27:43.386Z,52.37
2023-01-20T04:30:31.437Z,47.97
2023-01-20T04:33:20.878Z,46.87
2023-01-20T04:36:09.096Z,47.47
2023-01-20T04:38:57.476Z,46.97
2023-01-20T04:41:45.486Z,48.90
2023-01-20T04:44:33.545Z,44.77
2023-01-20T04:47:21.537Z,43.97
2023-01-20T04:50:13.697Z,42.63
2023-01-20T04:53:01.709Z,42.40
2023-01-20T04:55:49.706Z,43.60
2023-01-20T04:58:37.713Z,42.83
2023-01-20T05:01:26.078Z,36.90
2023-01-20T05:04:14.029Z,38.07
2023-01-20T05:07:03.271Z,37.10
2023-01-20T05:09:51.184Z,37.30
2023-01-20T05:12:39.117Z,36.00
2023-01-20T05:15:27.565Z,36.37
2023-01-20T05:18:15.674Z,40.60
2023-01-20T05:21:05.131Z,37.07
2023-01-20T05:23:55.889Z,36.87
2023-01-20T05:26:43.984Z,33.07
2023-01-20T05:29:32.106Z,33.83
2023-01-20T05:32:20.091Z,33.50
2023-01-20T05:35:09.364Z,35.63
2023-01-20T05:37:58.076Z,33.90
2023-01-20T05:40:47.376Z,33.57
2023-01-20T05:43:35.395Z,30.33
2023-01-20T05:46:23.444Z,33.43
2023-01-20T05:49:12.211Z,32.00
2023-01-20T05:52:00.121Z,32.87
2023-01-20T05:54:48.040Z,31.30
2023-01-20T05:57:37.486Z,33.03
2023-01-20T06:00:25.557Z,30.27
2023-01-20T06:03:13.467Z,29.40
2023-01-20T06:06:01.810Z,30.83
2023-01-20T06:08:52.968Z,29.73
2023-01-20T06:11:40.857Z,29.57
2023-01-20T06:14:30.194Z,30.90
2023-01-20T06:17:18.133Z,31.87
2023-01-20T06:20:06.700Z,30.43
2023-01-20T06:22:56.032Z,29.80
2023-01-20T06:25:44.021Z,30.07
2023-01-20T06:28:32.875Z,32.47
2023-01-20T06:31:22.268Z,30.50
2023-01-20T06:34:11.581Z,30.73
2023-01-20T06:36:59.580Z,30.43
2023-01-20T06:39:47.516Z,29.80
2023-01-20T06:42:35.473Z,27.90
2023-01-20T06:45:24.396Z,27.43
2023-01-20T06:48:13.675Z,29.80
2023-01-20T06:51:02.438Z,29.67
2023-01-20T06:53:50.362Z,29.13
2023-01-20T06:56:38.236Z,28.97
2023-01-20T06:59:26.120Z,30.97
2023-01-20T07:02:14.108Z,31.13
2023-01-20T07:05:04.613Z,30.37
2023-01-20T07:07:52.649Z,30.97
2023-01-20T07:10:40.887Z,27.70
2023-01-20T07:13:28.765Z,30.40
2023-01-20T07:16:17.002Z,30.70
2023-01-20T07:19:05.318Z,27.33
2023-01-20T07:21:54.592Z,25.83
2023-01-20T07:24:42.506Z,29.43
2023-01-20T07:27:30.416Z,27.77
2023-01-20T07:30:18.976Z,28.67
2023-01-20T07:33:06.883Z,29.30
2023-01-20T07:35:55.044Z,30.80
2023-01-20T07:38:44.393Z,30.27
2023-01-20T07:41:32.313Z,30.33
2023-01-20T07:44:20.213Z,33.03
2023-01-20T07:47:08.177Z,28.37
2023-01-20T07:49:59.117Z,30.67
2023-01-20T07:52:47.056Z,29.57
2023-01-20T07:55:36.323Z,30.57
2023-01-20T07:58:24.269Z,29.43
2023-01-20T08:01:14.175Z,29.20
2023-01-20T08:04:02.706Z,30.97
2023-01-20T08:06:50.604Z,33.57
2023-01-20T08:09:40.490Z,28.57
2023-01-20T08:12:30.788Z,28.57
2023-01-20T08:15:18.732Z,29.80
2023-01-20T08:18:06.751Z,30.70
2023-01-20T08:20:54.695Z,30.77
2023-01-20T08:23:42.596Z,30.40
2023-01-20T08:26:32.429Z,31.03
2023-01-20T08:29:21.726Z,30.83
2023-01-20T08:32:09.669Z,34.77
2023-01-20T08:34:57.690Z,31.90
2023-01-20T08:37:45.635Z,34.90
2023-01-20T08:40:34.214Z,31.30
2023-01-20T08:43:22.209Z,33.53
2023-01-20T08:46:13.223Z,33.40
2023-01-20T08:49:01.321Z,30.27
2023-01-20T08:51:49.541Z,34.90
2023-01-20T08:54:37.517Z,34.30
2023-01-20T08:57:26.181Z,34.73
2023-01-20T09:00:15.393Z,34.87
2023-01-20T09:03:05.262Z,35.67
2023-01-20T09:05:53.795Z,39.37
2023-01-20T09:08:42.467Z,41.80
2023-01-20T09:11:30.713Z,40.30
2023-01-20T09:14:18.945Z,39.57
2023-01-20T09:17:06.913Z,39.30
2023-01-20T09:19:56.185Z,40.47
2023-01-20T09:22:44.176Z,39.43
2023-01-20T09:25:32.077Z,43.67
2023-01-20T09:28:20.049Z,38.70
2023-01-20T09:31:10.172Z,41.23
2023-01-20T09:33:58.225Z,42.30
2023-01-20T09:36:51.239Z,39.70
2023-01-20T09:39:56.865Z,40.07
2023-01-20T09:43:22.423Z,38.23
2023-01-20T09:46:17.405Z,35.93
2023-01-20T09:49:39.736Z,42.37
2023-01-20T09:52:52.254Z,42.03
2023-01-20T09:55:45.535Z,40.93
2023-01-20T09:58:37.926Z,48.13
2023-01-20T10:01:30.803Z,50.50
2023-01-20T10:04:24.719Z,48.77
2023-01-20T10:07:16.933Z,50.27
2023-01-20T10:10:15.184Z,52.90
2023-01-20T10:13:07.721Z,60.83
2023-01-20T10:15:57.488Z,58.77
2023-01-20T10:18:52.390Z,58.40
2023-01-20T10:21:45.013Z,57.97
2023-01-20T10:24:37.637Z,61.60
2023-01-20T10:27:30.823Z,61.83
2023-01-20T10:30:20.116Z,60.57
2023-01-20T10:33:11.429Z,61.77
2023-01-20T10:36:01.209Z,63.23
2023-01-20T10:38:54.834Z,64.70
2023-01-20T10:41:46.533Z,61.80
2023-01-20T10:44:36.431Z,65.23
2023-01-20T10:47:42.279Z,63.93
2023-01-20T10:50:47.909Z,61.43
2023-01-20T10:53:48.334Z,66.73
2023-01-20T10:56:41.616Z,66.60
2023-01-20T10:59:33.233Z,67.47
2023-01-20T11:02:26.854Z,74.27
2023-01-20T11:05:18.795Z,72.27
2023-01-20T11:08:16.097Z,83.57
2023-01-20T11:11:12.328Z,75.20
2023-01-20T11:14:01.502Z,78.63
2023-01-20T11:16:54.831Z,81.10
2023-01-20T11:19:49.404Z,81.63
2023-01-20T11:22:38.587Z,82.70
2023-01-20T11:25:28.181Z,88.37
2023-01-20T11:28:19.378Z,84.00
2023-01-20T11:31:07.497Z,87.23
2023-01-20T11:33:57.448Z,84.10
2023-01-20T11:36:46.822Z,82.93
2023-01-20T11:39:37.640Z,74.90
2023-01-20T11:42:27.482Z,79.30
2023-01-20T11:45:32.520Z,82.30
2023-01-20T11:48:21.617Z,79.17
2023-01-20T11:51:20.750Z,78.33
2023-01-20T11:54:15.868Z,65.67
2023-01-20T11:57:07.557Z,75.23
2023-01-20T11:59:55.548Z,76.30
2023-01-20T12:02:44.741Z,69.20
2023-01-20T12:05:40.212Z,79.40
2023-01-20T12:08:32.137Z,88.10
2023-01-20T12:11:26.566Z,78.87
2023-01-20T12:14:24.782Z,82.40
2023-01-20T12:17:27.528Z,85.10
2023-01-20T12:20:23.527Z,81.93
2023-01-20T12:23:22.001Z,83.30
2023-01-20T12:26:11.435Z,90.67
2023-01-20T12:29:05.327Z,98.40
2023-01-20T12:31:54.426Z,87.53
2023-01-20T12:34:42.412Z,97.93
2023-01-20T12:37:40.584Z,106.73
2023-01-20T12:40:36.663Z,98.93
2023-01-20T12:43:54.398Z,106.40
2023-01-20T12:46:50.274Z,103.03
2023-01-20T12:49:53.410Z,89.63
2023-01-20T12:52:54.866Z,94.10
2023-01-20T12:55:52.596Z,98.03
2023-01-20T12:58:52.615Z,94.33
2023-01-20T13:01:55.871Z,90.57
2023-01-20T13:05:23.026Z,90.83
2023-01-20T13:08:21.747Z,81.60
2023-01-20T13:11:21.952Z,78.43
2023-01-20T13:14:14.804Z,85.17
2023-01-20T13:17:12.483Z,96.33
2023-01-20T13:20:04.714Z,95.00
2023-01-20T13:22:54.157Z,93.17
2023-01-20T13:25:43.353Z,81.87
2023-01-20T13:28:32.096Z,90.33
2023-01-20T13:31:32.576Z,87.43
2023-01-20T13:34:40.085Z,94.33
2023-01-20T13:37:39.155Z,98.90
2023-01-20T13:40:55.499Z,101.13
2023-01-20T13:43:53.046Z,97.30
2023-01-20T13:46:47.149Z,99.73
2023-01-20T13:49:53.339Z,95.27
2023-01-20T13:53:15.865Z,105.53
2023-01-20T13:56:03.962Z,96.73
2023-01-20T13:58:51.852Z,102.30
2023-01-20T14:01:39.816Z,106.50
2023-01-20T14:04:28.319Z,105.90
2023-01-20T14:07:25.323Z,94.53
2023-01-20T14:10:14.332Z,97.13
2023-01-20T14:13:02.419Z,93.50
2023-01-20T14:15:52.488Z,87.97
2023-01-20T14:18:41.693Z,90.33
2023-01-20T14:21:31.880Z,89.43
2023-01-20T14:24:33.373Z,93.67
2023-01-20T14:27:23.606Z,84.23
2023-01-20T14:30:17.195Z,94.83
2023-01-20T14:33:11.305Z,98.93
2023-01-20T14:35:59.333Z,97.10
2023-01-20T14:38:57.684Z,104.30
2023-01-20T14:41:50.156Z,106.17
2023-01-20T14:44:38.107Z,108.47
2023-01-20T14:47:27.947Z,106.73
2023-01-20T14:50:18.294Z,116.43
2023-01-20T14:53:07.015Z,114.57
2023-01-20T14:56:01.523Z,110.57
2023-01-20T14:58:54.689Z,101.20
2023-01-20T15:01:42.675Z,100.23
2023-01-20T15:04:37.056Z,92.73
2023-01-20T15:07:25.597Z,93.03
2023-01-20T15:10:16.534Z,95.53
2023-01-20T15:13:05.279Z,97.30
2023-01-20T15:16:07.448Z,93.60
2023-01-20T15:19:30.724Z,86.77
2023-01-20T15:22:24.526Z,81.70
2023-01-20T15:25:13.825Z,89.17
2023-01-20T15:28:01.754Z,86.43
2023-01-20T15:30:49.671Z,74.53
2023-01-20T15:33:38.916Z,85.17
2023-01-20T15:36:30.454Z,74.73
2023-01-20T15:39:20.893Z,81.33
2023-01-20T15:42:10.836Z,73.93
2023-01-20T15:44:58.780Z,81.27
2023-01-20T15:47:47.606Z,82.07
2023-01-20T15:50:36.873Z,82.90
2023-01-20T15:53:24.752Z,87.87
2023-01-20T15:56:19.769Z,76.10
2023-01-20T15:59:12.729Z,85.03
2023-01-20T16:02:00.777Z,71.93
2023-01-20T16:04:48.975Z,79.17
2023-01-20T16:07:38.277Z,70.37
2023-01-20T16:10:26.236Z,80.77
2023-01-20T16:13:14.495Z,80.67
2023-01-20T16:16:03.179Z,78.17
2023-01-20T16:18:51.331Z,83.63
2023-01-20T16:21:39.212Z,78.03
2023-01-20T16:24:28.474Z,75.87
2023-01-20T16:27:19.212Z,74.93
2023-01-20T16:30:08.320Z,66.43
2023-01-20T16:32:56.219Z,64.87
2023-01-20T16:35:44.157Z,70.43
2023-01-20T16:38:32.121Z,71.83
2023-01-20T16:41:24.117Z,68.70
2023-01-20T16:44:12.049Z,67.20
2023-01-20T16:47:00.162Z,80.47
2023-01-20T16:49:48.314Z,68.70
2023-01-20T16:52:36.275Z,76.80
2023-01-20T16:55:25.127Z,68.97
2023-01-20T16:58:15.796Z,80.10
2023-01-20T17:01:10.638Z,75.30
2023-01-20T17:04:00.120Z,80.27
2023-01-20T17:06:48.046Z,81.93
2023-01-20T17:09:36.031Z,82.57
2023-01-20T17:12:24.196Z,82.17
2023-01-20T17:15:13.899Z,80.87
2023-01-20T17:18:01.828Z,76.07
2023-01-20T17:20:49.770Z,85.07
2023-01-20T17:23:37.758Z,84.07
2023-01-20T17:26:26.438Z,86.10
2023-01-20T17:29:14.633Z,82.20
2023-01-20T17:32:04.048Z,84.87
2023-01-20T17:34:52.122Z,85.60
2023-01-20T17:37:40.006Z,78.60
2023-01-20T17:40:28.940Z,86.87
2023-01-20T17:43:16.852Z,80.73
2023-01-20T17:46:13.349Z,81.10
2023-01-20T17:49:04.573Z,75.93
2023-01-20T17:51:52.479Z,69.13
2023-01-20T17:54:40.391Z,64.63
2023-01-20T17:57:30.094Z,55.07
2023-01-20T18:00:19.192Z,64.33
2023-01-20T18:03:07.104Z,60.80
2023-01-20T18:05:58.365Z,67.73
2023-01-20T18:08:51.913Z,66.03
2023-01-20T18:11:39.851Z,63.40
2023-01-20T18:14:27.775Z,70.67
2023-01-20T18:17:15.677Z,73.73
2023-01-20T18:20:03.677Z,72.53
2023-01-20T18:22:53.044Z,69.80
2023-01-20T18:25:40.935Z,66.67
2023-01-20T18:28:28.891Z,68.33
2023-01-20T18:31:19.436Z,65.13
2023-01-20T18:34:09.517Z,59.13
2023-01-20T18:36:57.415Z,64.97
2023-01-20T18:39:46.685Z,57.60
2023-01-20T18:42:34.618Z,60.00
2023-01-20T18:45:22.514Z,61.13
2023-01-20T18:48:10.510Z,52.20
2023-01-20T18:51:00.541Z,56.90
2023-01-20T18:53:54.772Z,55.13
2023-01-20T18:56:44.516Z,56.67
2023-01-20T18:59:32.403Z,57.53
2023-01-20T19:02:20.321Z,60.47
2023-01-20T19:05:08.897Z,59.27
2023-01-20T19:07:56.918Z,62.23
2023-01-20T19:10:45.993Z,64.17
2023-01-20T19:13:35.351Z,66.27
2023-01-20T19:16:25.342Z,62.63
2023-01-20T19:19:14.033Z,63.00
2023-01-20T19:22:01.966Z,63.23
2023-01-20T19:24:49.905Z,62.97
2023-01-20T19:27:37.838Z,65.80
2023-01-20T19:30:27.997Z,66.80
2023-01-20T19:33:17.419Z,62.13
2023-01-20T19:36:07.324Z,68.73
2023-01-20T19:38:55.349Z,62.67
2023-01-20T19:41:43.687Z,59.27
2023-01-20T19:44:31.759Z,59.27
2023-01-20T19:47:21.033Z,57.43
2023-01-20T19:50:10.369Z,56.43
2023-01-20T19:52:58.268Z,59.67
2023-01-20T19:55:47.321Z,64.93
2023-01-20T19:58:35.588Z,58.00
2023-01-20T20:01:25.709Z,59.53
2023-01-20T20:04:15.061Z,59.77
2023-01-20T20:07:03.013Z,59.63
2023-01-20T20:09:51.457Z,55.50
2023-01-20T20:12:39.380Z,60.83
2023-01-20T20:15:27.483Z,63.30
2023-01-20T20:18:15.940Z,60.13
2023-01-20T20:21:05.829Z,64.03
2023-01-20T20:23:56.564Z,63.00
2023-01-20T20:26:46.317Z,66.33
2023-01-20T20:29:34.317Z,65.50
2023-01-20T20:32:22.303Z,62.53
2023-01-20T20:35:10.484Z,58.23
2023-01-20T20:37:59.788Z,65.13
2023-01-20T20:40:47.728Z,62.93
2023-01-20T20:43:35.875Z,64.80
2023-01-20T20:46:23.991Z,62.07
2023-01-20T20:49:14.822Z,61.43
2023-01-20T20:52:02.780Z,67.33
2023-01-20T20:54:53.877Z,66.27
2023-01-20T20:57:41.870Z,57.33
2023-01-20T21:00:30.218Z,62.97
2023-01-20T21:03:18.186Z,60.87
2023-01-20T21:06:06.715Z,62.73
2023-01-20T21:08:54.719Z,61.73
2023-01-20T21:11:44.066Z,58.57
2023-01-20T21:14:31.967Z,60.03
2023-01-20T21:17:19.908Z,63.43
2023-01-20T21:20:09.739Z,61.43
2023-01-20T21:22:57.708Z,61.53
2023-01-20T21:25:45.650Z,61.77
2023-01-20T21:28:36.062Z,62.00
2023-01-20T21:31:26.515Z,65.20
2023-01-20T21:34:15.934Z,69.77
2023-01-20T21:37:03.893Z,64.50
2023-01-20T21:39:51.874Z,68.93
2023-01-20T21:42:39.788Z,67.70
2023-01-20T21:45:28.082Z,65.43
2023-01-20T21:48:29.960Z,68.40
2023-01-20T21:51:35.339Z,64.33
2023-01-20T21:54:23.322Z,63.23
2023-01-20T21:57:11.306Z,70.83
2023-01-20T21:59:59.676Z,57.60
2023-01-20T22:02:48.953Z,70.10
2023-01-20T22:05:39.302Z,66.53
2023-01-20T22:08:27.220Z,63.93
2023-01-20T22:11:15.348Z,65.43
2023-01-20T22:14:03.499Z,65.33
2023-01-20T22:16:51.426Z,66.10
2023-01-20T22:19:41.102Z,62.87
2023-01-20T22:22:29.032Z,64.57
2023-01-20T22:25:17.158Z,70.10
2023-01-20T22:28:05.433Z,65.23
2023-01-20T22:30:53.433Z,71.30
2023-01-20T22:33:41.435Z,67.53
2023-01-20T22:36:30.790Z,65.17
2023-01-20T22:39:18.972Z,67.97
2023-01-20T22:42:07.562Z,57.53
2023-01-20T22:44:55.760Z,63.10
2023-01-20T22:47:43.721Z,64.87
2023-01-20T22:50:31.697Z,71.00
2023-01-20T22:53:20.960Z,66.20
2023-01-20T22:56:11.886Z,67.17
2023-01-20T22:59:01.235Z,63.80
2023-01-20T23:01:49.298Z,65.50
2023-01-20T23:04:37.246Z,62.83
2023-01-20T23:07:25.271Z,65.03
2023-01-20T23:10:35.254Z,70.37
2023-01-20T23:13:23.918Z,62.50
2023-01-20T23:16:16.498Z,67.13
2023-01-20T23:19:04.535Z,69.67
2023-01-20T23:21:52.527Z,68.07
2023-01-20T23:24:40.508Z,66.93
2023-01-20T23:27:29.804Z,67.60
2023-01-20T23:30:18.634Z,71.30
2023-01-20T23:33:06.993Z,65.87
2023-01-20T23:35:54.907Z,65.37
2023-01-20T23:38:43.259Z,63.20
2023-01-20T23:41:31.447Z,66.80
2023-01-20T23:44:20.689Z,65.93
2023-01-20T23:47:10.287Z,67.00
2023-01-20T23:49:58.213Z,70.80
2023-01-20T23:52:46.156Z,68.53
2023-01-20T23:55:34.075Z,65.40
2023-01-20T23:58:21.989Z,65.10
